sensor_id;sensor_type;location;lat;lon;timestamp;P1;durP1;ratioP1;P2;durP2;ratioP2
76290;SDS011;65100;46.884;17.410;2023-08-21T00:00:13;26.13;;;18.03;;
76290;SDS011;65100;46.884;17.410;2023-08-21T00:02:39;26.73;;;18.33;;
76290;SDS011;65100;46.884;17.410;2023-08-21T00:05:05;26.50;;;18.73;;
76290;SDS011;65100;46.884;17.410;2023-08-21T00:07:31;27.07;;;18.10;;
76290;SDS011;65100;46.884;17.410;2023-08-21T00:09:56;26.52;;;19.10;;
76290;SDS011;65100;46.884;17.410;2023-08-21T00:12:22;25.30;;;18.30;;
76290;SDS011;65100;46.884;17.410;2023-08-21T00:14:47;28.60;;;18.30;;
76290;SDS011;65100;46.884;17.410;2023-08-21T00:17:13;28.80;;;18.27;;
76290;SDS011;65100;46.884;17.410;2023-08-21T00:19:38;26.60;;;17.87;;
76290;SDS011;65100;46.884;17.410;2023-08-21T00:22:04;25.33;;;18.23;;
76290;SDS011;65100;46.884;17.410;2023-08-21T00:24:29;25.53;;;17.60;;
76290;SDS011;65100;46.884;17.410;2023-08-21T00:26:54;25.92;;;17.58;;
76290;SDS011;65100;46.884;17.410;2023-08-21T00:29:20;29.40;;;18.00;;
76290;SDS011;65100;46.884;17.410;2023-08-21T00:31:45;25.30;;;17.80;;
76290;SDS011;65100;46.884;17.410;2023-08-21T00:34:11;28.17;;;17.83;;
76290;SDS011;65100;46.884;17.410;2023-08-21T00:36:36;25.95;;;17.70;;
76290;SDS011;65100;46.884;17.410;2023-08-21T00:39:02;28.00;;;17.53;;
76290;SDS011;65100;46.884;17.410;2023-08-21T00:41:27;26.93;;;18.07;;
76290;SDS011;65100;46.884;17.410;2023-08-21T00:43:53;26.43;;;17.67;;
76290;SDS011;65100;46.884;17.410;2023-08-21T00:46:18;25.70;;;17.52;;
76290;SDS011;65100;46.884;17.410;2023-08-21T00:48:44;27.53;;;17.67;;
76290;SDS011;65100;46.884;17.410;2023-08-21T00:51:09;29.75;;;18.65;;
76290;SDS011;65100;46.884;17.410;2023-08-21T00:53:37;30.10;;;18.20;;
76290;SDS011;65100;46.884;17.410;2023-08-21T00:56:03;26.88;;;17.73;;
76290;SDS011;65100;46.884;17.410;2023-08-21T00:58:29;26.48;;;17.95;;
76290;SDS011;65100;46.884;17.410;2023-08-21T01:00:54;29.50;;;18.85;;
76290;SDS011;65100;46.884;17.410;2023-08-21T01:03:20;28.63;;;18.10;;
76290;SDS011;65100;46.884;17.410;2023-08-21T01:05:46;26.55;;;17.63;;
76290;SDS011;65100;46.884;17.410;2023-08-21T01:08:17;26.53;;;17.73;;
76290;SDS011;65100;46.884;17.410;2023-08-21T01:16:05;30.35;;;18.33;;
76290;SDS011;65100;46.884;17.410;2023-08-21T01:18:32;26.80;;;17.93;;
76290;SDS011;65100;46.884;17.410;2023-08-21T01:21:01;26.10;;;17.88;;
76290;SDS011;65100;46.884;17.410;2023-08-21T01:23:35;26.48;;;18.52;;
76290;SDS011;65100;46.884;17.410;2023-08-21T01:26:01;26.50;;;18.30;;
76290;SDS011;65100;46.884;17.410;2023-08-21T01:28:27;25.35;;;18.20;;
76290;SDS011;65100;46.884;17.410;2023-08-21T01:31:15;26.10;;;17.37;;
76290;SDS011;65100;46.884;17.410;2023-08-21T01:33:48;24.10;;;16.23;;
76290;SDS011;65100;46.884;17.410;2023-08-21T01:36:18;25.48;;;16.38;;
76290;SDS011;65100;46.884;17.410;2023-08-21T01:38:43;21.60;;;15.60;;
76290;SDS011;65100;46.884;17.410;2023-08-21T01:41:09;23.07;;;14.93;;
76290;SDS011;65100;46.884;17.410;2023-08-21T01:43:35;22.80;;;15.80;;
76290;SDS011;65100;46.884;17.410;2023-08-21T01:46:01;22.97;;;15.90;;
76290;SDS011;65100;46.884;17.410;2023-08-21T01:48:27;22.52;;;15.80;;
76290;SDS011;65100;46.884;17.410;2023-08-21T01:50:52;25.63;;;16.30;;
76290;SDS011;65100;46.884;17.410;2023-08-21T01:53:18;26.40;;;15.57;;
76290;SDS011;65100;46.884;17.410;2023-08-21T01:55:43;24.67;;;16.07;;
76290;SDS011;65100;46.884;17.410;2023-08-21T01:58:09;26.30;;;15.67;;
76290;SDS011;65100;46.884;17.410;2023-08-21T02:00:34;26.13;;;15.97;;
76290;SDS011;65100;46.884;17.410;2023-08-21T02:02:59;27.37;;;15.53;;
76290;SDS011;65100;46.884;17.410;2023-08-21T02:05:25;22.90;;;15.07;;
76290;SDS011;65100;46.884;17.410;2023-08-21T02:07:50;25.07;;;16.00;;
76290;SDS011;65100;46.884;17.410;2023-08-21T02:10:16;25.37;;;15.73;;
76290;SDS011;65100;46.884;17.410;2023-08-21T02:12:41;25.00;;;16.03;;
76290;SDS011;65100;46.884;17.410;2023-08-21T02:15:07;24.70;;;15.33;;
76290;SDS011;65100;46.884;17.410;2023-08-21T02:17:32;25.30;;;16.15;;
76290;SDS011;65100;46.884;17.410;2023-08-21T02:19:58;26.17;;;15.90;;
76290;SDS011;65100;46.884;17.410;2023-08-21T02:22:23;25.23;;;15.88;;
76290;SDS011;65100;46.884;17.410;2023-08-21T02:24:49;26.13;;;15.80;;
76290;SDS011;65100;46.884;17.410;2023-08-21T02:27:14;22.43;;;16.00;;
76290;SDS011;65100;46.884;17.410;2023-08-21T02:29:40;26.20;;;16.07;;
76290;SDS011;65100;46.884;17.410;2023-08-21T02:32:05;23.13;;;15.73;;
76290;SDS011;65100;46.884;17.410;2023-08-21T02:34:31;23.03;;;15.20;;
76290;SDS011;65100;46.884;17.410;2023-08-21T02:36:56;24.67;;;16.03;;
76290;SDS011;65100;46.884;17.410;2023-08-21T02:39:23;22.98;;;15.95;;
76290;SDS011;65100;46.884;17.410;2023-08-21T02:41:48;24.93;;;16.03;;
76290;SDS011;65100;46.884;17.410;2023-08-21T02:44:14;22.48;;;14.18;;
76290;SDS011;65100;46.884;17.410;2023-08-21T02:46:39;23.63;;;14.40;;
76290;SDS011;65100;46.884;17.410;2023-08-21T02:49:05;23.90;;;15.23;;
76290;SDS011;65100;46.884;17.410;2023-08-21T02:51:30;22.77;;;15.10;;
76290;SDS011;65100;46.884;17.410;2023-08-21T02:53:56;24.43;;;14.33;;
76290;SDS011;65100;46.884;17.410;2023-08-21T02:56:21;22.87;;;14.63;;
76290;SDS011;65100;46.884;17.410;2023-08-21T02:58:47;24.80;;;15.23;;
76290;SDS011;65100;46.884;17.410;2023-08-21T03:01:12;29.90;;;14.77;;
76290;SDS011;65100;46.884;17.410;2023-08-21T03:03:38;22.37;;;14.67;;
76290;SDS011;65100;46.884;17.410;2023-08-21T03:06:03;24.13;;;14.53;;
76290;SDS011;65100;46.884;17.410;2023-08-21T03:08:29;22.92;;;14.63;;
76290;SDS011;65100;46.884;17.410;2023-08-21T03:10:54;24.00;;;15.00;;
76290;SDS011;65100;46.884;17.410;2023-08-21T03:13:19;27.93;;;16.17;;
76290;SDS011;65100;46.884;17.410;2023-08-21T03:15:45;25.45;;;16.13;;
76290;SDS011;65100;46.884;17.410;2023-08-21T03:18:10;25.47;;;16.03;;
76290;SDS011;65100;46.884;17.410;2023-08-21T03:20:36;25.53;;;17.00;;
76290;SDS011;65100;46.884;17.410;2023-08-21T03:23:01;25.20;;;17.03;;
76290;SDS011;65100;46.884;17.410;2023-08-21T03:25:27;27.90;;;16.38;;
76290;SDS011;65100;46.884;17.410;2023-08-21T03:27:53;30.42;;;18.27;;
76290;SDS011;65100;46.884;17.410;2023-08-21T03:30:18;26.33;;;16.57;;
76290;SDS011;65100;46.884;17.410;2023-08-21T03:32:44;26.30;;;16.80;;
76290;SDS011;65100;46.884;17.410;2023-08-21T03:35:10;26.00;;;16.40;;
76290;SDS011;65100;46.884;17.410;2023-08-21T03:37:35;26.13;;;16.23;;
76290;SDS011;65100;46.884;17.410;2023-08-21T03:40:02;26.67;;;16.97;;
76290;SDS011;65100;46.884;17.410;2023-08-21T03:42:28;26.67;;;16.43;;
76290;SDS011;65100;46.884;17.410;2023-08-21T03:44:54;24.00;;;15.50;;
76290;SDS011;65100;46.884;17.410;2023-08-21T03:47:19;24.90;;;15.57;;
76290;SDS011;65100;46.884;17.410;2023-08-21T03:49:45;26.00;;;15.80;;
76290;SDS011;65100;46.884;17.410;2023-08-21T03:52:13;26.10;;;16.25;;
76290;SDS011;65100;46.884;17.410;2023-08-21T03:54:38;24.40;;;14.83;;
76290;SDS011;65100;46.884;17.410;2023-08-21T03:57:04;25.00;;;15.70;;
76290;SDS011;65100;46.884;17.410;2023-08-21T03:59:29;22.00;;;14.83;;
76290;SDS011;65100;46.884;17.410;2023-08-21T04:01:55;23.33;;;14.63;;
76290;SDS011;65100;46.884;17.410;2023-08-21T04:04:20;22.33;;;14.65;;
76290;SDS011;65100;46.884;17.410;2023-08-21T04:06:46;24.87;;;16.17;;
76290;SDS011;65100;46.884;17.410;2023-08-21T04:09:11;25.57;;;16.20;;
76290;SDS011;65100;46.884;17.410;2023-08-21T04:11:37;26.48;;;15.77;;
76290;SDS011;65100;46.884;17.410;2023-08-21T04:14:03;24.40;;;15.10;;
76290;SDS011;65100;46.884;17.410;2023-08-21T04:16:29;23.92;;;15.85;;
76290;SDS011;65100;46.884;17.410;2023-08-21T04:18:55;23.05;;;15.63;;
76290;SDS011;65100;46.884;17.410;2023-08-21T04:21:21;25.27;;;15.50;;
76290;SDS011;65100;46.884;17.410;2023-08-21T04:23:47;22.30;;;14.73;;
76290;SDS011;65100;46.884;17.410;2023-08-21T04:26:12;20.53;;;14.17;;
76290;SDS011;65100;46.884;17.410;2023-08-21T04:28:37;21.80;;;15.10;;
76290;SDS011;65100;46.884;17.410;2023-08-21T04:31:06;24.15;;;15.82;;
76290;SDS011;65100;46.884;17.410;2023-08-21T04:33:32;24.35;;;15.38;;
76290;SDS011;65100;46.884;17.410;2023-08-21T04:35:58;22.93;;;15.33;;
76290;SDS011;65100;46.884;17.410;2023-08-21T04:38:24;23.00;;;15.10;;
76290;SDS011;65100;46.884;17.410;2023-08-21T04:40:50;21.90;;;14.90;;
76290;SDS011;65100;46.884;17.410;2023-08-21T04:43:15;23.05;;;15.10;;
76290;SDS011;65100;46.884;17.410;2023-08-21T04:45:59;23.90;;;16.27;;
76290;SDS011;65100;46.884;17.410;2023-08-21T04:48:24;23.10;;;16.00;;
76290;SDS011;65100;46.884;17.410;2023-08-21T04:50:50;22.73;;;16.43;;
76290;SDS011;65100;46.884;17.410;2023-08-21T04:53:15;23.93;;;16.17;;
76290;SDS011;65100;46.884;17.410;2023-08-21T04:55:41;22.13;;;16.50;;
76290;SDS011;65100;46.884;17.410;2023-08-21T04:58:07;21.70;;;16.00;;
76290;SDS011;65100;46.884;17.410;2023-08-21T05:00:33;22.60;;;16.45;;
76290;SDS011;65100;46.884;17.410;2023-08-21T05:06:05;22.57;;;16.20;;
76290;SDS011;65100;46.884;17.410;2023-08-21T05:08:30;26.25;;;17.23;;
76290;SDS011;65100;46.884;17.410;2023-08-21T05:10:56;23.77;;;17.40;;
76290;SDS011;65100;46.884;17.410;2023-08-21T05:13:25;24.08;;;17.05;;
76290;SDS011;65100;46.884;17.410;2023-08-21T05:15:52;24.50;;;18.02;;
76290;SDS011;65100;46.884;17.410;2023-08-21T05:18:22;26.40;;;18.07;;
76290;SDS011;65100;46.884;17.410;2023-08-21T05:20:48;27.00;;;18.50;;
76290;SDS011;65100;46.884;17.410;2023-08-21T05:23:14;26.17;;;18.75;;
76290;SDS011;65100;46.884;17.410;2023-08-21T05:25:40;26.85;;;18.33;;
76290;SDS011;65100;46.884;17.410;2023-08-21T05:28:07;26.35;;;18.55;;
76290;SDS011;65100;46.884;17.410;2023-08-21T05:30:33;25.90;;;18.67;;
76290;SDS011;65100;46.884;17.410;2023-08-21T05:33:01;26.20;;;19.50;;
76290;SDS011;65100;46.884;17.410;2023-08-21T05:35:26;25.20;;;18.47;;
76290;SDS011;65100;46.884;17.410;2023-08-21T05:37:52;25.60;;;18.67;;
76290;SDS011;65100;46.884;17.410;2023-08-21T05:40:17;26.73;;;18.48;;
76290;SDS011;65100;46.884;17.410;2023-08-21T05:42:43;25.53;;;18.07;;
76290;SDS011;65100;46.884;17.410;2023-08-21T05:45:08;23.93;;;18.10;;
76290;SDS011;65100;46.884;17.410;2023-08-21T05:47:34;24.27;;;17.93;;
76290;SDS011;65100;46.884;17.410;2023-08-21T05:49:59;24.40;;;18.50;;
76290;SDS011;65100;46.884;17.410;2023-08-21T05:52:24;22.60;;;17.40;;
76290;SDS011;65100;46.884;17.410;2023-08-21T05:54:50;24.33;;;17.77;;
76290;SDS011;65100;46.884;17.410;2023-08-21T05:57:15;22.83;;;17.57;;
76290;SDS011;65100;46.884;17.410;2023-08-21T05:59:44;23.38;;;17.50;;
76290;SDS011;65100;46.884;17.410;2023-08-21T06:02:11;23.33;;;18.00;;
76290;SDS011;65100;46.884;17.410;2023-08-21T06:04:41;23.30;;;17.30;;
76290;SDS011;65100;46.884;17.410;2023-08-21T06:07:07;22.48;;;17.27;;
76290;SDS011;65100;46.884;17.410;2023-08-21T06:09:33;29.13;;;20.80;;
76290;SDS011;65100;46.884;17.410;2023-08-21T06:11:59;22.07;;;17.47;;
76290;SDS011;65100;46.884;17.410;2023-08-21T06:14:28;19.80;;;16.40;;
76290;SDS011;65100;46.884;17.410;2023-08-21T06:17:03;22.23;;;16.55;;
76290;SDS011;65100;46.884;17.410;2023-08-21T06:19:30;23.38;;;17.98;;
76290;SDS011;65100;46.884;17.410;2023-08-21T06:21:56;26.80;;;18.00;;
76290;SDS011;65100;46.884;17.410;2023-08-21T06:24:22;21.85;;;16.92;;
76290;SDS011;65100;46.884;17.410;2023-08-21T06:26:47;20.80;;;16.00;;
76290;SDS011;65100;46.884;17.410;2023-08-21T06:29:13;21.17;;;16.17;;
76290;SDS011;65100;46.884;17.410;2023-08-21T06:31:39;22.03;;;15.77;;
76290;SDS011;65100;46.884;17.410;2023-08-21T06:34:04;20.75;;;16.00;;
76290;SDS011;65100;46.884;17.410;2023-08-21T06:36:30;22.37;;;16.23;;
76290;SDS011;65100;46.884;17.410;2023-08-21T06:38:55;19.90;;;15.77;;
76290;SDS011;65100;46.884;17.410;2023-08-21T06:41:21;20.10;;;16.35;;
76290;SDS011;65100;46.884;17.410;2023-08-21T06:43:47;20.92;;;16.25;;
76290;SDS011;65100;46.884;17.410;2023-08-21T06:46:12;22.63;;;15.17;;
76290;SDS011;65100;46.884;17.410;2023-08-21T06:48:38;19.03;;;15.53;;
76290;SDS011;65100;46.884;17.410;2023-08-21T06:51:07;18.88;;;15.15;;
76290;SDS011;65100;46.884;17.410;2023-08-21T06:53:33;18.53;;;15.07;;
76290;SDS011;65100;46.884;17.410;2023-08-21T06:55:59;19.83;;;15.05;;
76290;SDS011;65100;46.884;17.410;2023-08-21T06:58:25;17.70;;;14.95;;
76290;SDS011;65100;46.884;17.410;2023-08-21T07:00:50;17.50;;;14.43;;
76290;SDS011;65100;46.884;17.410;2023-08-21T07:03:16;17.53;;;14.40;;
76290;SDS011;65100;46.884;17.410;2023-08-21T07:05:41;18.98;;;14.63;;
76290;SDS011;65100;46.884;17.410;2023-08-21T07:08:12;16.87;;;14.73;;
76290;SDS011;65100;46.884;17.410;2023-08-21T07:10:37;19.55;;;15.93;;
76290;SDS011;65100;46.884;17.410;2023-08-21T07:13:03;17.33;;;14.35;;
76290;SDS011;65100;46.884;17.410;2023-08-21T07:15:29;18.33;;;14.20;;
76290;SDS011;65100;46.884;17.410;2023-08-21T07:17:55;18.95;;;14.90;;
76290;SDS011;65100;46.884;17.410;2023-08-21T07:20:21;19.87;;;14.97;;
76290;SDS011;65100;46.884;17.410;2023-08-21T07:23:07;17.33;;;14.27;;
76290;SDS011;65100;46.884;17.410;2023-08-21T07:25:33;20.53;;;14.83;;
76290;SDS011;65100;46.884;17.410;2023-08-21T07:27:58;18.57;;;14.70;;
76290;SDS011;65100;46.884;17.410;2023-08-21T07:30:24;18.05;;;14.30;;
76290;SDS011;65100;46.884;17.410;2023-08-21T07:32:49;20.33;;;15.10;;
76290;SDS011;65100;46.884;17.410;2023-08-21T07:35:15;19.20;;;14.63;;
76290;SDS011;65100;46.884;17.410;2023-08-21T07:37:44;21.92;;;18.02;;
76290;SDS011;65100;46.884;17.410;2023-08-21T07:40:10;17.83;;;13.57;;
76290;SDS011;65100;46.884;17.410;2023-08-21T07:42:36;19.08;;;15.40;;
76290;SDS011;65100;46.884;17.410;2023-08-21T07:45:02;18.83;;;15.97;;
76290;SDS011;65100;46.884;17.410;2023-08-21T07:47:27;15.60;;;13.45;;
76290;SDS011;65100;46.884;17.410;2023-08-21T07:49:53;15.87;;;13.50;;
76290;SDS011;65100;46.884;17.410;2023-08-21T07:52:19;16.30;;;13.70;;
76290;SDS011;65100;46.884;17.410;2023-08-21T07:54:45;18.43;;;13.40;;
76290;SDS011;65100;46.884;17.410;2023-08-21T07:57:11;16.77;;;13.95;;
76290;SDS011;65100;46.884;17.410;2023-08-21T07:59:36;16.83;;;13.50;;
76290;SDS011;65100;46.884;17.410;2023-08-21T08:02:02;17.58;;;13.68;;
76290;SDS011;65100;46.884;17.410;2023-08-21T08:04:28;17.73;;;13.90;;
76290;SDS011;65100;46.884;17.410;2023-08-21T08:06:53;16.80;;;13.93;;
76290;SDS011;65100;46.884;17.410;2023-08-21T08:09:19;18.23;;;14.33;;
76290;SDS011;65100;46.884;17.410;2023-08-21T08:11:44;18.43;;;13.97;;
76290;SDS011;65100;46.884;17.410;2023-08-21T08:14:10;17.75;;;13.70;;
76290;SDS011;65100;46.884;17.410;2023-08-21T08:16:35;17.77;;;13.53;;
76290;SDS011;65100;46.884;17.410;2023-08-21T08:19:01;17.23;;;13.73;;
76290;SDS011;65100;46.884;17.410;2023-08-21T08:21:26;16.17;;;12.70;;
76290;SDS011;65100;46.884;17.410;2023-08-21T08:23:51;17.53;;;12.80;;
76290;SDS011;65100;46.884;17.410;2023-08-21T08:26:17;16.58;;;12.77;;
76290;SDS011;65100;46.884;17.410;2023-08-21T08:28:42;17.83;;;13.30;;
76290;SDS011;65100;46.884;17.410;2023-08-21T08:31:17;18.08;;;12.75;;
76290;SDS011;65100;46.884;17.410;2023-08-21T08:33:43;17.50;;;13.13;;
76290;SDS011;65100;46.884;17.410;2023-08-21T08:36:09;15.52;;;12.95;;
76290;SDS011;65100;46.884;17.410;2023-08-21T08:38:35;17.60;;;13.10;;
76290;SDS011;65100;46.884;17.410;2023-08-21T08:41:02;17.47;;;12.27;;
76290;SDS011;65100;46.884;17.410;2023-08-21T08:43:32;15.70;;;12.35;;
76290;SDS011;65100;46.884;17.410;2023-08-21T08:46:02;16.27;;;13.02;;
76290;SDS011;65100;46.884;17.410;2023-08-21T08:48:28;16.42;;;12.43;;
76290;SDS011;65100;46.884;17.410;2023-08-21T08:50:54;15.87;;;12.80;;
76290;SDS011;65100;46.884;17.410;2023-08-21T08:53:19;17.10;;;12.90;;
76290;SDS011;65100;46.884;17.410;2023-08-21T08:55:45;16.23;;;12.77;;
76290;SDS011;65100;46.884;17.410;2023-08-21T08:58:10;15.77;;;12.10;;
76290;SDS011;65100;46.884;17.410;2023-08-21T09:00:36;15.60;;;11.82;;
76290;SDS011;65100;46.884;17.410;2023-08-21T09:03:02;16.10;;;12.30;;
76290;SDS011;65100;46.884;17.410;2023-08-21T09:05:28;15.38;;;11.93;;
76290;SDS011;65100;46.884;17.410;2023-08-21T09:10:31;15.95;;;12.50;;
76290;SDS011;65100;46.884;17.410;2023-08-21T09:12:58;13.90;;;11.10;;
76290;SDS011;65100;46.884;17.410;2023-08-21T09:15:29;15.50;;;12.37;;
76290;SDS011;65100;46.884;17.410;2023-08-21T09:17:55;15.43;;;12.38;;
76290;SDS011;65100;46.884;17.410;2023-08-21T09:20:21;14.68;;;11.95;;
76290;SDS011;65100;46.884;17.410;2023-08-21T09:22:53;16.23;;;11.67;;
76290;SDS011;65100;46.884;17.410;2023-08-21T09:25:22;15.70;;;12.40;;
76290;SDS011;65100;46.884;17.410;2023-08-21T09:27:49;15.63;;;12.20;;
76290;SDS011;65100;46.884;17.410;2023-08-21T09:30:17;15.93;;;11.90;;
76290;SDS011;65100;46.884;17.410;2023-08-21T09:35:19;14.93;;;11.20;;
76290;SDS011;65100;46.884;17.410;2023-08-21T09:37:46;15.98;;;11.60;;
76290;SDS011;65100;46.884;17.410;2023-08-21T09:40:12;20.30;;;15.13;;
76290;SDS011;65100;46.884;17.410;2023-08-21T09:42:38;14.73;;;11.80;;
76290;SDS011;65100;46.884;17.410;2023-08-21T09:45:04;16.23;;;11.43;;
76290;SDS011;65100;46.884;17.410;2023-08-21T09:47:30;18.00;;;13.25;;
76290;SDS011;65100;46.884;17.410;2023-08-21T09:49:58;16.70;;;11.38;;
76290;SDS011;65100;46.884;17.410;2023-08-21T09:52:24;16.23;;;12.67;;
76290;SDS011;65100;46.884;17.410;2023-08-21T09:54:52;15.80;;;12.27;;
76290;SDS011;65100;46.884;17.410;2023-08-21T09:57:18;15.15;;;12.00;;
76290;SDS011;65100;46.884;17.410;2023-08-21T09:59:48;16.65;;;12.02;;
76290;SDS011;65100;46.884;17.410;2023-08-21T10:02:22;15.45;;;12.48;;
76290;SDS011;65100;46.884;17.410;2023-08-21T10:04:48;15.07;;;12.17;;
76290;SDS011;65100;46.884;17.410;2023-08-21T10:07:19;15.38;;;12.45;;
76290;SDS011;65100;46.884;17.410;2023-08-21T10:09:47;15.25;;;12.02;;
76290;SDS011;65100;46.884;17.410;2023-08-21T10:12:13;17.15;;;12.13;;
76290;SDS011;65100;46.884;17.410;2023-08-21T10:14:40;13.93;;;11.53;;
76290;SDS011;65100;46.884;17.410;2023-08-21T10:17:06;15.50;;;12.00;;
76290;SDS011;65100;46.884;17.410;2023-08-21T10:19:33;15.93;;;12.50;;
76290;SDS011;65100;46.884;17.410;2023-08-21T10:21:59;15.00;;;11.73;;
76290;SDS011;65100;46.884;17.410;2023-08-21T10:24:33;14.75;;;12.05;;
76290;SDS011;65100;46.884;17.410;2023-08-21T10:27:01;15.70;;;12.67;;
76290;SDS011;65100;46.884;17.410;2023-08-21T10:29:27;19.33;;;16.27;;
76290;SDS011;65100;46.884;17.410;2023-08-21T10:32:00;15.07;;;12.30;;
76290;SDS011;65100;46.884;17.410;2023-08-21T10:34:31;15.65;;;12.10;;
76290;SDS011;65100;46.884;17.410;2023-08-21T10:37:09;15.10;;;11.68;;
76290;SDS011;65100;46.884;17.410;2023-08-21T10:39:37;15.80;;;11.87;;
76290;SDS011;65100;46.884;17.410;2023-08-21T10:50:00;15.35;;;11.80;;
76290;SDS011;65100;46.884;17.410;2023-08-21T10:52:35;15.13;;;11.43;;
76290;SDS011;65100;46.884;17.410;2023-08-21T10:55:02;16.60;;;11.88;;
76290;SDS011;65100;46.884;17.410;2023-08-21T10:57:32;15.75;;;12.20;;
76290;SDS011;65100;46.884;17.410;2023-08-21T11:00:02;14.65;;;11.80;;
76290;SDS011;65100;46.884;17.410;2023-08-21T11:02:35;14.98;;;11.68;;
76290;SDS011;65100;46.884;17.410;2023-08-21T11:05:02;14.50;;;10.77;;
76290;SDS011;65100;46.884;17.410;2023-08-21T11:07:28;16.27;;;11.52;;
76290;SDS011;65100;46.884;17.410;2023-08-21T11:09:56;15.52;;;11.43;;
76290;SDS011;65100;46.884;17.410;2023-08-21T11:12:22;15.35;;;12.00;;
76290;SDS011;65100;46.884;17.410;2023-08-21T11:14:49;14.30;;;11.15;;
76290;SDS011;65100;46.884;17.410;2023-08-21T11:17:15;13.53;;;10.83;;
76290;SDS011;65100;46.884;17.410;2023-08-21T11:19:41;15.43;;;10.95;;
76290;SDS011;65100;46.884;17.410;2023-08-21T11:22:07;14.48;;;11.35;;
76290;SDS011;65100;46.884;17.410;2023-08-21T11:24:40;14.48;;;11.52;;
76290;SDS011;65100;46.884;17.410;2023-08-21T11:27:10;13.60;;;10.27;;
76290;SDS011;65100;46.884;17.410;2023-08-21T11:29:41;16.77;;;10.55;;
76290;SDS011;65100;46.884;17.410;2023-08-21T11:32:14;13.32;;;10.75;;
76290;SDS011;65100;46.884;17.410;2023-08-21T11:34:42;14.40;;;10.57;;
76290;SDS011;65100;46.884;17.410;2023-08-21T11:37:12;15.82;;;11.25;;
76290;SDS011;65100;46.884;17.410;2023-08-21T11:39:50;12.77;;;10.23;;
76290;SDS011;65100;46.884;17.410;2023-08-21T11:42:18;13.48;;;9.77;;
76290;SDS011;65100;46.884;17.410;2023-08-21T11:44:47;18.75;;;10.70;;
76290;SDS011;65100;46.884;17.410;2023-08-21T11:47:15;16.80;;;10.63;;
76290;SDS011;65100;46.884;17.410;2023-08-21T11:49:42;16.42;;;11.18;;
76290;SDS011;65100;46.884;17.410;2023-08-21T11:52:11;15.82;;;11.05;;
76290;SDS011;65100;46.884;17.410;2023-08-21T11:54:38;13.73;;;10.73;;
76290;SDS011;65100;46.884;17.410;2023-08-21T11:57:09;14.82;;;11.15;;
76290;SDS011;65100;46.884;17.410;2023-08-21T11:59:37;15.17;;;11.17;;
76290;SDS011;65100;46.884;17.410;2023-08-21T12:02:36;13.75;;;11.07;;
76290;SDS011;65100;46.884;17.410;2023-08-21T12:05:01;14.95;;;11.68;;
76290;SDS011;65100;46.884;17.410;2023-08-21T12:07:33;14.27;;;11.13;;
76290;SDS011;65100;46.884;17.410;2023-08-21T12:09:59;13.40;;;10.50;;
76290;SDS011;65100;46.884;17.410;2023-08-21T12:12:25;13.77;;;10.85;;
76290;SDS011;65100;46.884;17.410;2023-08-21T12:14:50;13.10;;;10.70;;
76290;SDS011;65100;46.884;17.410;2023-08-21T12:17:16;13.63;;;10.50;;
76290;SDS011;65100;46.884;17.410;2023-08-21T12:19:41;13.30;;;10.50;;
76290;SDS011;65100;46.884;17.410;2023-08-21T12:22:07;13.95;;;10.57;;
76290;SDS011;65100;46.884;17.410;2023-08-21T12:24:33;14.18;;;10.63;;
76290;SDS011;65100;46.884;17.410;2023-08-21T12:26:59;14.13;;;10.23;;
76290;SDS011;65100;46.884;17.410;2023-08-21T12:29:24;12.73;;;10.47;;
76290;SDS011;65100;46.884;17.410;2023-08-21T12:31:50;13.88;;;11.10;;
76290;SDS011;65100;46.884;17.410;2023-08-21T12:34:15;13.80;;;10.60;;
76290;SDS011;65100;46.884;17.410;2023-08-21T12:36:40;12.23;;;9.90;;
76290;SDS011;65100;46.884;17.410;2023-08-21T12:39:06;13.63;;;10.60;;
76290;SDS011;65100;46.884;17.410;2023-08-21T12:41:32;13.65;;;9.93;;
76290;SDS011;65100;46.884;17.410;2023-08-21T12:43:59;12.07;;;9.65;;
76290;SDS011;65100;46.884;17.410;2023-08-21T12:46:25;14.10;;;10.13;;
76290;SDS011;65100;46.884;17.410;2023-08-21T12:48:52;12.70;;;10.03;;
76290;SDS011;65100;46.884;17.410;2023-08-21T12:51:18;59.60;;;17.38;;
76290;SDS011;65100;46.884;17.410;2023-08-21T12:53:44;17.17;;;11.70;;
76290;SDS011;65100;46.884;17.410;2023-08-21T12:56:10;14.17;;;10.40;;
76290;SDS011;65100;46.884;17.410;2023-08-21T12:58:35;16.37;;;11.63;;
76290;SDS011;65100;46.884;17.410;2023-08-21T13:01:00;14.60;;;10.57;;
76290;SDS011;65100;46.884;17.410;2023-08-21T13:03:28;17.08;;;10.05;;
76290;SDS011;65100;46.884;17.410;2023-08-21T13:05:54;14.25;;;10.00;;
76290;SDS011;65100;46.884;17.410;2023-08-21T13:08:19;15.67;;;10.27;;
76290;SDS011;65100;46.884;17.410;2023-08-21T13:10:44;14.17;;;9.97;;
76290;SDS011;65100;46.884;17.410;2023-08-21T13:13:10;14.60;;;9.80;;
76290;SDS011;65100;46.884;17.410;2023-08-21T13:15:35;14.52;;;9.82;;
76290;SDS011;65100;46.884;17.410;2023-08-21T13:18:01;15.47;;;10.67;;
76290;SDS011;65100;46.884;17.410;2023-08-21T13:20:26;13.90;;;10.10;;
76290;SDS011;65100;46.884;17.410;2023-08-21T13:22:52;12.88;;;9.93;;
76290;SDS011;65100;46.884;17.410;2023-08-21T13:25:18;12.73;;;10.30;;
76290;SDS011;65100;46.884;17.410;2023-08-21T13:34:08;12.57;;;9.70;;
76290;SDS011;65100;46.884;17.410;2023-08-21T13:36:34;13.68;;;9.95;;
76290;SDS011;65100;46.884;17.410;2023-08-21T13:38:59;14.13;;;10.43;;
76290;SDS011;65100;46.884;17.410;2023-08-21T13:41:25;13.03;;;9.80;;
76290;SDS011;65100;46.884;17.410;2023-08-21T13:43:50;12.73;;;9.98;;
76290;SDS011;65100;46.884;17.410;2023-08-21T13:46:16;12.77;;;10.23;;
76290;SDS011;65100;46.884;17.410;2023-08-21T13:48:41;13.07;;;10.20;;
76290;SDS011;65100;46.884;17.410;2023-08-21T13:51:08;13.43;;;10.57;;
76290;SDS011;65100;46.884;17.410;2023-08-21T13:53:33;15.43;;;11.53;;
76290;SDS011;65100;46.884;17.410;2023-08-21T13:55:59;14.33;;;10.57;;
76290;SDS011;65100;46.884;17.410;2023-08-21T13:58:25;13.33;;;10.23;;
76290;SDS011;65100;46.884;17.410;2023-08-21T14:00:51;14.43;;;10.30;;
76290;SDS011;65100;46.884;17.410;2023-08-21T14:03:16;15.55;;;10.70;;
76290;SDS011;65100;46.884;17.410;2023-08-21T14:05:41;13.70;;;10.53;;
76290;SDS011;65100;46.884;17.410;2023-08-21T14:08:07;13.87;;;10.83;;
76290;SDS011;65100;46.884;17.410;2023-08-21T14:10:33;14.02;;;10.52;;
76290;SDS011;65100;46.884;17.410;2023-08-21T14:12:58;14.10;;;10.67;;
76290;SDS011;65100;46.884;17.410;2023-08-21T14:15:24;13.57;;;10.87;;
76290;SDS011;65100;46.884;17.410;2023-08-21T14:17:49;14.02;;;10.48;;
76290;SDS011;65100;46.884;17.410;2023-08-21T14:20:15;13.80;;;11.00;;
76290;SDS011;65100;46.884;17.410;2023-08-21T14:22:41;14.57;;;11.30;;
76290;SDS011;65100;46.884;17.410;2023-08-21T14:25:07;14.23;;;11.00;;
76290;SDS011;65100;46.884;17.410;2023-08-21T14:27:33;13.43;;;10.95;;
76290;SDS011;65100;46.884;17.410;2023-08-21T14:29:59;14.55;;;10.73;;
76290;SDS011;65100;46.884;17.410;2023-08-21T14:32:25;14.97;;;11.30;;